Terminal Aerodrome Forecast
Issued by NWS

Home | Current Version | Previous Version | Text Only | Print | Product List | Glossary On
Versions: 1 2 3 4 5 6 7 8 9 10 11 12 13 14 15 16
085
FTUS42 KGSP 271500 AAA
TAFAND
TAF AMD
KAND 271500Z 2715/2812 22007KT P6SM VCSH SCT035 BKN100
     FM271800 22008KT P6SM VCTS BKN035CB
     FM280100 18005KT 5SM -SHRA BR BKN030
     FM280800 19004KT 3SM BR VCSH BKN010=

USA.gov is the U.S. government's official web portal to all federal, state and local government web resources and services.